createdAt,value
2018-03-07T00:00:02.239Z,980.46
2018-03-07T00:01:02.219Z,980.44
2018-03-07T00:02:55.577Z,980.45
2018-03-07T00:03:55.535Z,980.45
2018-03-07T00:05:48.383Z,980.48
2018-03-07T00:06:48.360Z,980.50
2018-03-07T00:08:41.746Z,980.59
2018-03-07T00:09:41.719Z,980.55
2018-03-07T00:11:34.544Z,980.51
2018-03-07T00:12:34.519Z,980.54
2018-03-07T00:14:27.383Z,980.52
2018-03-07T00:15:27.353Z,980.57
2018-03-07T00:17:20.687Z,980.53
2018-03-07T00:18:20.663Z,980.56
2018-03-07T00:20:14.019Z,980.53
2018-03-07T00:21:13.986Z,980.60
2018-03-07T00:23:06.826Z,980.55
2018-03-07T00:24:06.803Z,980.53
2018-03-07T00:26:00.164Z,980.58
2018-03-07T00:27:00.129Z,980.51
2018-03-07T00:28:53.466Z,980.58
2018-03-07T00:29:53.441Z,980.57
2018-03-07T00:31:46.792Z,980.57
2018-03-07T00:32:46.766Z,980.57
2018-03-07T00:34:40.111Z,980.53
2018-03-07T00:35:40.078Z,980.57
2018-03-07T00:37:33.436Z,980.56
2018-03-07T00:38:33.398Z,980.61
2018-03-07T00:40:26.739Z,980.62
2018-03-07T00:41:26.716Z,980.64
2018-03-07T00:43:20.078Z,980.65
2018-03-07T00:44:20.036Z,980.66
2018-03-07T00:46:12.879Z,980.62
2018-03-07T00:47:12.858Z,980.63
2018-03-07T00:49:06.211Z,980.67
2018-03-07T00:50:06.176Z,980.61
2018-03-07T00:51:59.528Z,980.58
2018-03-07T00:52:59.504Z,980.65
2018-03-07T00:54:52.869Z,980.59
2018-03-07T00:55:52.827Z,980.58
2018-03-07T00:57:45.682Z,980.55
2018-03-07T00:58:45.652Z,980.61
2018-03-07T01:00:38.514Z,980.64
2018-03-07T01:01:38.475Z,980.64
2018-03-07T01:03:31.324Z,980.59
2018-03-07T01:04:31.298Z,980.61
2018-03-07T01:06:24.660Z,980.65
2018-03-07T01:07:24.653Z,980.62
2018-03-07T01:09:17.963Z,980.57
2018-03-07T01:10:17.938Z,980.59
2018-03-07T01:12:11.297Z,980.64
2018-03-07T01:13:11.257Z,980.57
2018-03-07T01:15:04.103Z,980.59
2018-03-07T01:16:04.080Z,980.58
2018-03-07T01:17:57.436Z,980.60
2018-03-07T01:18:57.401Z,980.61
2018-03-07T01:20:50.243Z,980.58
2018-03-07T01:21:50.223Z,980.64
2018-03-07T01:23:43.589Z,980.61
2018-03-07T01:24:43.541Z,980.61
2018-03-07T01:26:36.885Z,980.59
2018-03-07T01:27:36.859Z,980.62
2018-03-07T01:29:29.723Z,980.65
2018-03-07T01:30:29.684Z,980.63
2018-03-07T01:32:23.028Z,980.60
2018-03-07T01:33:22.999Z,980.64
2018-03-07T01:35:16.368Z,980.58
2018-03-07T01:36:16.316Z,980.57
2018-03-07T01:38:09.196Z,980.56
2018-03-07T01:39:09.168Z,980.50
2018-03-07T01:41:02.536Z,980.52
2018-03-07T01:42:02.485Z,980.49
2018-03-07T01:43:55.836Z,980.54
2018-03-07T01:44:55.811Z,980.52
2018-03-07T01:46:49.179Z,980.46
2018-03-07T01:47:49.128Z,980.51
2018-03-07T01:49:41.978Z,980.48
2018-03-07T01:50:41.965Z,980.49
2018-03-07T01:52:34.819Z,980.50
2018-03-07T01:53:34.799Z,980.52
2018-03-07T01:55:28.132Z,980.50
2018-03-07T01:56:28.108Z,980.50
2018-03-07T01:58:20.977Z,980.53
2018-03-07T01:59:20.937Z,980.46
2018-03-07T02:01:14.273Z,980.47
2018-03-07T02:02:14.252Z,980.52
2018-03-07T02:04:07.113Z,980.52
2018-03-07T02:05:07.076Z,980.53
2018-03-07T02:07:00.424Z,980.49
2018-03-07T02:08:00.391Z,980.50
2018-03-07T02:09:53.745Z,980.49
2018-03-07T02:10:53.707Z,980.49
2018-03-07T02:12:47.055Z,980.54
2018-03-07T02:13:47.027Z,980.53
2018-03-07T02:15:39.894Z,980.52
2018-03-07T02:16:39.853Z,980.49
2018-03-07T02:18:33.195Z,980.52
2018-03-07T02:19:33.178Z,980.55
2018-03-07T02:21:26.527Z,980.55
2018-03-07T02:22:26.492Z,980.58
2018-03-07T02:24:19.834Z,980.54
2018-03-07T02:25:19.805Z,980.57
2018-03-07T02:27:12.672Z,980.57
2018-03-07T02:28:12.634Z,980.58
2018-03-07T02:30:05.981Z,980.58
2018-03-07T02:31:05.958Z,980.62
2018-03-07T02:32:58.823Z,980.61
2018-03-07T02:33:58.786Z,980.65
2018-03-07T02:35:52.125Z,980.65
2018-03-07T02:36:52.104Z,980.68
2018-03-07T02:38:45.462Z,980.67
2018-03-07T02:39:45.424Z,980.66
2018-03-07T02:41:38.761Z,980.67
2018-03-07T02:42:38.741Z,980.69
2018-03-07T02:44:31.610Z,980.68
2018-03-07T02:45:31.566Z,980.68
2018-03-07T02:47:24.917Z,980.64
2018-03-07T02:48:24.893Z,980.67
2018-03-07T02:50:17.755Z,980.70
2018-03-07T02:51:17.714Z,980.70
2018-03-07T02:53:10.558Z,980.72
2018-03-07T02:54:10.541Z,980.71
2018-03-07T02:56:03.396Z,980.71
2018-03-07T02:57:03.358Z,980.70
2018-03-07T02:58:56.206Z,980.69
2018-03-07T02:59:56.179Z,980.77
2018-03-07T03:01:49.040Z,980.69
2018-03-07T03:02:49.007Z,980.78
2018-03-07T03:04:42.349Z,980.76
2018-03-07T03:05:42.327Z,980.80
2018-03-07T03:07:35.197Z,980.82
2018-03-07T03:08:35.152Z,980.84
2018-03-07T03:10:27.997Z,980.83
2018-03-07T03:11:28.017Z,980.80
2018-03-07T03:13:20.835Z,980.81
2018-03-07T03:14:20.797Z,980.86
2018-03-07T03:16:14.155Z,980.87
2018-03-07T03:17:14.127Z,980.92
2018-03-07T03:21:59.727Z,980.85
2018-03-07T03:22:59.698Z,980.88
2018-03-07T03:24:53.066Z,980.89
2018-03-07T03:25:53.028Z,980.85
2018-03-07T03:27:46.354Z,980.89
2018-03-07T03:28:46.329Z,980.86
2018-03-07T03:30:39.665Z,980.81
2018-03-07T03:31:39.626Z,980.79
2018-03-07T03:33:32.449Z,980.72
2018-03-07T03:34:32.429Z,980.68
2018-03-07T03:36:25.759Z,980.68
2018-03-07T03:37:25.721Z,980.69
2018-03-07T03:39:18.545Z,980.70
2018-03-07T03:40:18.525Z,980.66
2018-03-07T03:42:11.374Z,980.81
2018-03-07T03:43:11.324Z,980.83
2018-03-07T03:45:04.648Z,980.81
2018-03-07T03:46:04.621Z,980.80
2018-03-07T03:47:57.959Z,980.79
2018-03-07T03:48:57.918Z,980.76
2018-03-07T03:50:51.237Z,980.77
2018-03-07T03:51:51.214Z,980.78
2018-03-07T03:53:44.560Z,980.75
2018-03-07T03:54:44.509Z,980.70
2018-03-07T03:56:37.840Z,980.71
2018-03-07T03:57:37.816Z,980.72
2018-03-07T03:59:30.657Z,980.67
2018-03-07T04:00:30.613Z,980.66
2018-03-07T04:02:23.479Z,980.66
2018-03-07T04:03:23.426Z,980.69
2018-03-07T04:05:16.768Z,980.71
2018-03-07T04:06:16.739Z,980.79
2018-03-07T04:08:09.549Z,980.80
2018-03-07T04:09:09.522Z,980.84
2018-03-07T04:11:02.856Z,980.88
2018-03-07T04:12:02.822Z,980.91
2018-03-07T04:13:56.131Z,980.99
2018-03-07T04:14:56.117Z,980.98
2018-03-07T04:16:48.953Z,981.06
2018-03-07T04:17:48.914Z,981.05
2018-03-07T04:19:42.238Z,981.04
2018-03-07T04:20:42.214Z,981.08
2018-03-07T04:22:35.552Z,981.10
2018-03-07T04:23:35.516Z,981.12
2018-03-07T04:25:28.368Z,981.18
2018-03-07T04:26:28.313Z,981.20
2018-03-07T04:28:21.167Z,981.20
2018-03-07T04:29:21.130Z,981.17
2018-03-07T04:31:13.951Z,981.16
2018-03-07T04:32:13.930Z,981.17
2018-03-07T04:34:07.279Z,981.22
2018-03-07T04:35:07.242Z,981.21
2018-03-07T04:37:00.557Z,981.21
2018-03-07T04:38:00.534Z,981.21
2018-03-07T04:39:53.868Z,981.29
2018-03-07T04:40:53.830Z,981.26
2018-03-07T04:42:47.162Z,981.28
2018-03-07T04:43:47.134Z,981.33
2018-03-07T04:45:40.473Z,981.35
2018-03-07T04:46:40.438Z,981.32
2018-03-07T04:48:33.263Z,981.30
2018-03-07T04:49:33.237Z,981.27
2018-03-07T04:51:26.076Z,981.34
2018-03-07T04:52:26.040Z,981.35
2018-03-07T04:54:19.377Z,981.35
2018-03-07T04:55:19.334Z,981.37
2018-03-07T04:57:12.667Z,981.37
2018-03-07T04:58:12.635Z,981.36
2018-03-07T05:00:05.955Z,981.37
2018-03-07T05:01:05.931Z,981.38
2018-03-07T05:02:59.263Z,981.41
2018-03-07T05:03:59.229Z,981.41
2018-03-07T05:05:52.544Z,981.44
2018-03-07T05:06:52.525Z,981.45
2018-03-07T05:08:45.861Z,981.50
2018-03-07T05:09:45.822Z,981.49
2018-03-07T05:11:39.140Z,981.49
2018-03-07T05:12:39.120Z,981.52
2018-03-07T05:14:32.145Z,981.49
2018-03-07T05:15:31.938Z,981.51
2018-03-07T05:17:25.258Z,981.52
2018-03-07T05:18:25.234Z,981.51
2018-03-07T05:20:18.076Z,981.53
2018-03-07T05:21:18.036Z,981.50
2018-03-07T05:23:11.366Z,981.52
2018-03-07T05:24:11.344Z,981.52
2018-03-07T05:26:04.181Z,981.51
2018-03-07T05:27:04.145Z,981.53
2018-03-07T05:28:57.485Z,981.50
2018-03-07T05:29:57.450Z,981.51
2018-03-07T05:31:50.287Z,981.53
2018-03-07T05:32:50.248Z,981.59
2018-03-07T05:34:43.078Z,981.56
2018-03-07T05:35:43.060Z,981.61
2018-03-07T05:37:36.397Z,981.64
2018-03-07T05:38:36.381Z,981.65
2018-03-07T05:40:29.194Z,981.60
2018-03-07T05:41:29.162Z,981.60
2018-03-07T05:43:22.502Z,981.50
2018-03-07T05:44:22.458Z,981.44
2018-03-07T05:46:15.781Z,981.49
2018-03-07T05:47:15.759Z,981.56
2018-03-07T05:49:08.595Z,981.62
2018-03-07T05:50:08.565Z,981.65
2018-03-07T05:52:01.883Z,981.62
2018-03-07T05:53:01.849Z,981.61
2018-03-07T05:54:55.187Z,981.65
2018-03-07T05:55:55.151Z,981.66
2018-03-07T05:57:48.464Z,981.70
2018-03-07T05:58:48.446Z,981.71
2018-03-07T06:00:41.779Z,981.74
2018-03-07T06:01:41.738Z,981.70
2018-03-07T06:03:35.076Z,981.73
2018-03-07T06:04:35.048Z,981.75
2018-03-07T06:06:28.393Z,981.80
2018-03-07T06:07:28.350Z,981.84
2018-03-07T06:09:21.164Z,981.87
2018-03-07T06:10:21.139Z,981.88
2018-03-07T06:12:13.998Z,981.90
2018-03-07T06:13:13.940Z,981.90
2018-03-07T06:15:07.264Z,981.83
2018-03-07T06:16:07.237Z,981.91
2018-03-07T06:18:00.571Z,981.90
2018-03-07T06:19:00.533Z,981.97
2018-03-07T06:20:53.858Z,981.99
2018-03-07T06:21:53.829Z,981.96
2018-03-07T06:23:47.160Z,981.94
2018-03-07T06:24:47.128Z,981.97
2018-03-07T06:26:39.962Z,982.01
2018-03-07T06:27:39.930Z,982.07
2018-03-07T06:29:33.277Z,982.08
2018-03-07T06:30:33.232Z,982.07
2018-03-07T06:32:26.566Z,982.10
2018-03-07T06:33:26.563Z,982.07
2018-03-07T06:38:12.678Z,982.17
2018-03-07T06:39:12.617Z,982.19
2018-03-07T06:41:05.985Z,982.26
2018-03-07T06:42:05.950Z,982.23
2018-03-07T06:43:59.783Z,982.27
2018-03-07T06:44:59.251Z,982.29
2018-03-07T06:46:52.608Z,982.29
2018-03-07T06:47:52.566Z,982.32
2018-03-07T06:49:45.918Z,982.39
2018-03-07T06:50:45.896Z,982.38
2018-03-07T06:52:39.248Z,982.40
2018-03-07T06:53:39.208Z,982.46
2018-03-07T06:55:32.545Z,982.44
2018-03-07T06:56:32.520Z,982.50
2018-03-07T06:58:25.876Z,982.50
2018-03-07T06:59:25.839Z,982.49
2018-03-07T07:01:19.201Z,982.53
2018-03-07T07:02:19.176Z,982.51
2018-03-07T07:04:12.540Z,982.50
2018-03-07T07:05:12.497Z,982.54
2018-03-07T07:07:05.879Z,982.54
2018-03-07T07:08:05.813Z,982.61
2018-03-07T07:09:59.182Z,982.65
2018-03-07T07:10:59.136Z,982.65
2018-03-07T07:12:52.480Z,982.64
2018-03-07T07:13:52.461Z,982.63
2018-03-07T07:15:45.317Z,982.62
2018-03-07T07:16:45.321Z,982.73
2018-03-07T07:18:38.626Z,982.70
2018-03-07T07:19:38.643Z,982.79
2018-03-07T07:21:31.963Z,982.67
2018-03-07T07:22:31.959Z,982.69
2018-03-07T07:24:25.295Z,982.77
2018-03-07T07:25:25.254Z,982.77
2018-03-07T07:27:18.601Z,982.90
2018-03-07T07:28:18.671Z,982.88
2018-03-07T07:30:11.913Z,982.83
2018-03-07T07:31:11.956Z,982.87
2018-03-07T07:33:05.249Z,982.97
2018-03-07T07:34:05.212Z,982.96
2018-03-07T07:35:58.548Z,982.95
2018-03-07T07:36:58.518Z,982.91
2018-03-07T07:38:51.875Z,982.95
2018-03-07T07:39:51.837Z,982.97
2018-03-07T07:41:45.185Z,982.98
2018-03-07T07:42:45.163Z,982.95
2018-03-07T07:44:38.538Z,983.04
2018-03-07T07:45:38.494Z,983.00
2018-03-07T07:47:31.841Z,983.02
2018-03-07T07:48:31.818Z,983.06
2018-03-07T07:50:25.180Z,983.07
2018-03-07T07:51:25.137Z,983.05
2018-03-07T07:53:18.483Z,983.09
2018-03-07T07:54:18.457Z,983.08
2018-03-07T07:56:11.996Z,983.09
2018-03-07T07:57:11.953Z,983.11
2018-03-07T07:59:04.803Z,983.23
2018-03-07T08:00:04.772Z,983.19
2018-03-07T08:01:57.803Z,983.20
2018-03-07T08:02:57.597Z,983.18
2018-03-07T08:04:50.951Z,983.23
2018-03-07T08:05:50.928Z,983.28
2018-03-07T08:07:44.286Z,983.32
2018-03-07T08:08:44.250Z,983.30
2018-03-07T08:10:37.586Z,983.35
2018-03-07T08:11:37.568Z,983.33
2018-03-07T08:13:30.953Z,983.32
2018-03-07T08:14:30.896Z,983.36
2018-03-07T08:16:24.250Z,983.35
2018-03-07T08:17:24.226Z,983.39
2018-03-07T08:19:17.593Z,983.40
2018-03-07T08:20:17.624Z,983.42
2018-03-07T08:22:10.899Z,983.54
2018-03-07T08:23:10.877Z,983.54
2018-03-07T08:25:04.245Z,983.44
2018-03-07T08:26:04.198Z,983.52
2018-03-07T08:27:57.546Z,983.58
2018-03-07T08:28:57.550Z,983.49
2018-03-07T08:30:50.885Z,983.55
2018-03-07T08:31:50.847Z,983.56
2018-03-07T08:33:44.193Z,983.59
2018-03-07T08:34:44.167Z,983.66
2018-03-07T08:36:37.535Z,983.61
2018-03-07T08:37:37.505Z,983.64
2018-03-07T08:39:30.343Z,983.81
2018-03-07T08:40:30.388Z,983.83
2018-03-07T08:42:23.677Z,983.84
2018-03-07T08:43:23.646Z,983.80
2018-03-07T08:45:16.982Z,983.92
2018-03-07T08:46:16.957Z,983.79
2018-03-07T08:48:09.829Z,983.80
2018-03-07T08:49:09.792Z,983.68
2018-03-07T08:51:03.134Z,983.77
2018-03-07T08:52:03.109Z,983.77
2018-03-07T08:53:56.472Z,983.73
2018-03-07T08:54:56.447Z,983.76
2018-03-07T08:56:49.283Z,983.75
2018-03-07T08:57:49.258Z,983.78
2018-03-07T08:59:42.622Z,983.81
2018-03-07T09:00:42.579Z,983.83
2018-03-07T09:02:35.428Z,983.86
2018-03-07T09:03:35.408Z,983.82
2018-03-07T09:05:28.272Z,983.89
2018-03-07T09:06:28.235Z,983.81
2018-03-07T09:08:21.576Z,983.92
2018-03-07T09:09:21.557Z,983.89
2018-03-07T09:11:14.918Z,983.90
2018-03-07T09:12:14.879Z,983.89
2018-03-07T09:14:08.222Z,983.89
2018-03-07T09:15:08.192Z,983.94
2018-03-07T09:17:01.589Z,983.89
2018-03-07T09:18:01.525Z,983.98
2018-03-07T09:19:54.377Z,983.88
2018-03-07T09:20:54.348Z,984.04
2018-03-07T09:22:47.211Z,983.95
2018-03-07T09:23:47.176Z,983.89
2018-03-07T09:25:40.517Z,984.03
2018-03-07T09:26:40.500Z,983.92
2018-03-07T09:28:33.857Z,984.03
2018-03-07T09:29:33.830Z,984.01
2018-03-07T09:31:27.249Z,983.94
2018-03-07T09:32:27.145Z,983.96
2018-03-07T09:34:20.010Z,984.09
2018-03-07T09:35:19.970Z,983.98
2018-03-07T09:37:12.834Z,984.04
2018-03-07T09:38:12.802Z,983.94
2018-03-07T09:40:06.178Z,983.98
2018-03-07T09:41:06.126Z,983.96
2018-03-07T09:42:58.970Z,983.97
2018-03-07T09:43:58.948Z,984.02
2018-03-07T09:45:52.322Z,983.91
2018-03-07T09:46:52.289Z,983.90
2018-03-07T09:48:45.145Z,983.99
2018-03-07T09:49:45.124Z,984.05
2018-03-07T09:51:37.980Z,984.05
2018-03-07T09:52:37.944Z,984.11
2018-03-07T09:54:31.295Z,984.09
2018-03-07T09:55:31.271Z,983.97
2018-03-07T09:57:24.706Z,984.23
2018-03-07T09:58:24.597Z,984.14
2018-03-07T10:00:17.942Z,984.17
2018-03-07T10:01:17.916Z,984.07
2018-03-07T10:03:11.277Z,984.07
2018-03-07T10:04:11.242Z,984.14
2018-03-07T10:06:04.587Z,984.23
2018-03-07T10:07:04.569Z,984.28
2018-03-07T10:08:57.923Z,984.14
2018-03-07T10:09:57.883Z,984.20
2018-03-07T10:11:51.314Z,984.29
2018-03-07T10:12:51.210Z,984.57
2018-03-07T10:14:44.574Z,984.34
2018-03-07T10:15:44.531Z,984.22
2018-03-07T10:17:37.875Z,984.34
2018-03-07T10:18:37.858Z,984.43
2018-03-07T10:20:31.219Z,984.32
2018-03-07T10:21:31.187Z,984.26
2018-03-07T10:23:24.532Z,984.31
2018-03-07T10:24:24.510Z,984.30
2018-03-07T10:26:17.880Z,984.49
2018-03-07T10:27:17.851Z,984.51
2018-03-07T10:29:11.207Z,984.39
2018-03-07T10:30:11.172Z,984.41
2018-03-07T10:32:04.545Z,984.40
2018-03-07T10:33:04.539Z,984.39
2018-03-07T10:34:57.867Z,984.45
2018-03-07T10:35:57.843Z,984.41
2018-03-07T10:37:50.711Z,984.64
2018-03-07T10:38:50.673Z,984.46
2018-03-07T10:40:44.019Z,984.39
2018-03-07T10:41:44.001Z,984.33
2018-03-07T10:43:36.875Z,984.30
2018-03-07T10:44:36.833Z,984.38
2018-03-07T10:46:29.692Z,984.49
2018-03-07T10:47:29.665Z,984.35
2018-03-07T10:49:22.544Z,984.45
2018-03-07T10:50:22.507Z,984.40
2018-03-07T10:52:15.870Z,984.39
2018-03-07T10:53:15.829Z,984.55
2018-03-07T10:55:09.196Z,984.39
2018-03-07T10:56:09.150Z,984.41
2018-03-07T10:58:02.506Z,984.31
2018-03-07T10:59:02.493Z,984.33
2018-03-07T11:00:55.347Z,984.33
2018-03-07T11:01:55.312Z,984.33
2018-03-07T11:03:48.658Z,984.34
2018-03-07T11:04:48.636Z,984.34
2018-03-07T11:06:41.999Z,984.36
2018-03-07T11:07:41.974Z,984.36
2018-03-07T11:09:35.304Z,984.48
2018-03-07T11:10:35.279Z,984.47
2018-03-07T11:12:28.644Z,984.42
2018-03-07T11:13:28.608Z,984.40
2018-03-07T11:15:21.950Z,984.35
2018-03-07T11:16:21.934Z,984.57
2018-03-07T11:18:15.313Z,984.59
2018-03-07T11:19:15.253Z,984.60
2018-03-07T11:21:08.608Z,984.38
2018-03-07T11:22:08.587Z,984.58
2018-03-07T11:24:01.461Z,984.39
2018-03-07T11:25:01.429Z,984.76
2018-03-07T11:26:54.275Z,984.58
2018-03-07T11:27:54.259Z,984.53
2018-03-07T11:29:47.133Z,984.58
2018-03-07T11:30:47.157Z,984.48
2018-03-07T11:32:40.503Z,984.41
2018-03-07T11:33:40.503Z,984.44
2018-03-07T11:35:33.852Z,984.45
2018-03-07T11:36:33.799Z,984.66
2018-03-07T11:38:27.273Z,984.47
2018-03-07T11:39:27.230Z,984.48
2018-03-07T11:41:20.506Z,984.50
2018-03-07T11:42:20.470Z,984.47
2018-03-07T11:44:13.819Z,984.39
2018-03-07T11:45:13.797Z,984.52
2018-03-07T11:47:07.158Z,984.49
2018-03-07T11:48:07.117Z,984.49
2018-03-07T11:50:00.466Z,984.63
2018-03-07T11:51:00.437Z,984.38
2018-03-07T11:52:53.302Z,984.34
2018-03-07T11:53:53.267Z,984.37
2018-03-07T11:55:46.610Z,984.46
2018-03-07T11:56:46.593Z,984.84
2018-03-07T11:58:39.952Z,984.35
2018-03-07T11:59:39.921Z,984.46
2018-03-07T12:01:33.262Z,984.44
2018-03-07T12:02:33.245Z,984.51
2018-03-07T12:04:26.603Z,984.46
2018-03-07T12:05:26.565Z,984.43
2018-03-07T12:07:19.910Z,984.48
2018-03-07T12:08:19.888Z,984.45
2018-03-07T12:10:12.753Z,984.34
2018-03-07T12:11:12.716Z,984.45
2018-03-07T12:13:05.568Z,984.41
2018-03-07T12:14:05.544Z,984.52
2018-03-07T12:15:58.898Z,984.44
2018-03-07T12:16:58.859Z,984.57
2018-03-07T12:18:52.220Z,984.59
2018-03-07T12:19:52.196Z,984.43
2018-03-07T12:21:45.552Z,984.41
2018-03-07T12:22:45.511Z,984.63
2018-03-07T12:24:38.862Z,984.42
2018-03-07T12:25:38.858Z,984.45
2018-03-07T12:27:31.735Z,984.51
2018-03-07T12:28:31.673Z,984.54
2018-03-07T12:30:24.525Z,984.48
2018-03-07T12:31:24.505Z,984.46
2018-03-07T12:33:17.857Z,984.49
2018-03-07T12:34:17.825Z,984.44
2018-03-07T12:36:11.168Z,984.52
2018-03-07T12:37:11.145Z,984.34
2018-03-07T12:39:04.508Z,984.51
2018-03-07T12:40:04.469Z,984.43
2018-03-07T12:41:57.327Z,984.48
2018-03-07T12:42:57.304Z,984.47
2018-03-07T12:44:50.668Z,984.50
2018-03-07T12:45:50.625Z,984.64
2018-03-07T12:47:43.971Z,984.57
2018-03-07T12:48:43.947Z,984.56
2018-03-07T12:50:37.315Z,984.63
2018-03-07T12:51:37.277Z,984.64
2018-03-07T12:53:30.136Z,984.57
2018-03-07T12:54:30.113Z,984.63
2018-03-07T12:56:22.991Z,984.71
2018-03-07T12:57:22.951Z,984.81
2018-03-07T12:59:16.298Z,984.73
2018-03-07T13:00:16.280Z,984.58
2018-03-07T13:02:09.654Z,984.62
2018-03-07T13:03:09.598Z,984.62
2018-03-07T13:05:02.945Z,984.73
2018-03-07T13:06:02.924Z,984.73
2018-03-07T13:07:56.880Z,984.62
2018-03-07T13:08:56.274Z,984.72
2018-03-07T13:10:49.605Z,984.67
2018-03-07T13:11:49.586Z,984.60
2018-03-07T13:13:42.945Z,984.73
2018-03-07T13:14:42.909Z,984.64
2018-03-07T13:16:36.282Z,984.58
2018-03-07T13:17:36.252Z,984.69
2018-03-07T13:19:29.113Z,984.68
2018-03-07T13:20:29.078Z,984.74
2018-03-07T13:22:22.421Z,984.83
2018-03-07T13:23:22.400Z,984.71
2018-03-07T13:25:15.769Z,984.73
2018-03-07T13:26:15.725Z,984.68
2018-03-07T13:28:09.071Z,984.76
2018-03-07T13:29:09.050Z,984.80
2018-03-07T13:31:02.427Z,984.73
2018-03-07T13:32:02.376Z,984.69
2018-03-07T13:33:55.718Z,984.66
2018-03-07T13:34:55.693Z,984.68
2018-03-07T13:36:49.058Z,984.70
2018-03-07T13:37:49.022Z,984.72
2018-03-07T13:39:42.374Z,984.78
2018-03-07T13:40:42.345Z,984.67
2018-03-07T13:42:35.209Z,984.68
2018-03-07T13:43:35.177Z,984.63
2018-03-07T13:45:28.518Z,984.65
2018-03-07T13:46:28.505Z,984.76
2018-03-07T13:48:21.873Z,984.76
2018-03-07T13:49:21.834Z,984.70
2018-03-07T13:51:15.189Z,984.69
2018-03-07T13:52:15.153Z,984.67
2018-03-07T13:54:08.516Z,984.76
2018-03-07T13:55:08.481Z,984.68
2018-03-07T13:57:02.325Z,984.71
2018-03-07T13:58:02.314Z,984.71
2018-03-07T13:59:55.663Z,984.65
2018-03-07T14:00:55.627Z,984.55
2018-03-07T14:02:48.978Z,984.55
2018-03-07T14:03:48.957Z,984.53
2018-03-07T14:05:41.832Z,984.53
2018-03-07T14:06:41.787Z,984.64
2018-03-07T14:08:35.154Z,984.66
2018-03-07T14:09:35.128Z,984.79
2018-03-07T14:11:28.487Z,984.57
2018-03-07T14:12:28.444Z,984.57
2018-03-07T14:14:21.801Z,984.57
2018-03-07T14:15:21.778Z,984.55
2018-03-07T14:17:15.155Z,984.69
2018-03-07T14:18:15.112Z,984.56
2018-03-07T14:20:07.967Z,984.64
2018-03-07T14:21:07.944Z,984.56
2018-03-07T14:23:01.304Z,984.57
2018-03-07T14:24:01.263Z,984.57
2018-03-07T14:25:54.609Z,984.57
2018-03-07T14:26:54.595Z,984.69
2018-03-07T14:28:47.955Z,984.58
2018-03-07T14:29:47.913Z,984.58
2018-03-07T14:31:41.281Z,984.58
2018-03-07T14:32:41.251Z,984.68
2018-03-07T14:34:34.612Z,984.67
2018-03-07T14:35:34.582Z,984.68
2018-03-07T14:37:27.421Z,984.77
2018-03-07T14:38:27.402Z,984.94
2018-03-07T14:40:20.766Z,984.86
2018-03-07T14:41:20.726Z,984.72
2018-03-07T14:43:14.087Z,984.75
2018-03-07T14:44:14.055Z,984.79
2018-03-07T14:46:07.423Z,984.88
2018-03-07T14:47:07.383Z,984.78
2018-03-07T14:49:00.731Z,984.77
2018-03-07T14:50:00.718Z,985.00
2018-03-07T14:51:54.076Z,984.99
2018-03-07T14:52:54.038Z,984.93
2018-03-07T14:54:47.387Z,984.93
2018-03-07T14:55:47.364Z,985.05
2018-03-07T14:57:40.745Z,985.05
2018-03-07T14:58:40.703Z,985.08
2018-03-07T15:00:34.212Z,984.95
2018-03-07T15:01:34.026Z,985.00
2018-03-07T15:03:27.396Z,985.10
2018-03-07T15:04:27.354Z,984.90
2018-03-07T15:06:20.781Z,985.13
2018-03-07T15:07:20.767Z,984.92
2018-03-07T15:09:13.649Z,984.94
2018-03-07T15:10:13.594Z,985.00
2018-03-07T15:12:06.452Z,985.00
2018-03-07T15:13:06.428Z,985.01
2018-03-07T15:14:59.308Z,985.04
2018-03-07T15:15:59.259Z,985.13
2018-03-07T15:17:52.625Z,985.25
2018-03-07T15:18:52.591Z,985.64
2018-03-07T15:20:45.955Z,986.01
2018-03-07T15:21:45.916Z,985.73
2018-03-07T15:23:38.774Z,986.37
2018-03-07T15:24:38.747Z,986.03
2018-03-07T15:26:32.119Z,986.16
2018-03-07T15:27:32.099Z,986.17
2018-03-07T15:29:25.420Z,986.09
2018-03-07T15:30:25.407Z,986.11
2018-03-07T15:32:18.777Z,986.19
2018-03-07T15:33:18.737Z,986.25
2018-03-07T15:35:11.586Z,986.38
2018-03-07T15:36:11.567Z,986.40
2018-03-07T15:38:04.427Z,986.32
2018-03-07T15:39:04.390Z,986.43
2018-03-07T15:40:57.240Z,986.60
2018-03-07T15:41:57.215Z,986.44
2018-03-07T15:43:50.574Z,986.66
2018-03-07T15:44:50.535Z,986.39
2018-03-07T15:46:43.391Z,986.37
2018-03-07T15:47:43.360Z,986.27
2018-03-07T15:49:36.717Z,986.30
2018-03-07T15:50:36.681Z,986.26
2018-03-07T15:52:30.019Z,985.87
2018-03-07T15:53:29.999Z,985.76
2018-03-07T15:55:22.860Z,985.74
2018-03-07T15:56:22.822Z,985.78
2018-03-07T15:58:16.163Z,985.71
2018-03-07T15:59:16.140Z,985.74
2018-03-07T16:01:09.005Z,985.79
2018-03-07T16:02:08.966Z,985.84
2018-03-07T16:04:01.816Z,985.84
2018-03-07T16:05:01.798Z,985.83
2018-03-07T16:06:54.661Z,985.90
2018-03-07T16:07:54.624Z,985.88
2018-03-07T16:09:47.973Z,985.86
2018-03-07T16:10:47.949Z,985.84
2018-03-07T16:12:41.303Z,985.86
2018-03-07T16:13:41.268Z,985.89
2018-03-07T16:15:34.647Z,985.84
2018-03-07T16:16:34.587Z,985.89
2018-03-07T16:18:27.950Z,985.97
2018-03-07T16:19:27.911Z,986.01
2018-03-07T16:21:20.765Z,985.91
2018-03-07T16:22:20.741Z,985.95
2018-03-07T16:24:14.106Z,985.96
2018-03-07T16:25:14.063Z,985.98
2018-03-07T16:27:07.421Z,985.99
2018-03-07T16:28:07.397Z,985.97
2018-03-07T16:30:00.269Z,986.03
2018-03-07T16:31:00.233Z,986.05
2018-03-07T16:32:53.579Z,986.08
2018-03-07T16:33:53.556Z,986.06
2018-03-07T16:35:46.420Z,986.10
2018-03-07T16:36:46.381Z,986.08
2018-03-07T16:38:39.725Z,986.15
2018-03-07T16:39:39.726Z,986.10
2018-03-07T16:41:33.068Z,986.08
2018-03-07T16:42:33.031Z,986.05
2018-03-07T16:44:26.377Z,986.08
2018-03-07T16:45:26.350Z,986.07
2018-03-07T16:47:19.710Z,986.07
2018-03-07T16:48:19.670Z,986.14
2018-03-07T16:50:13.018Z,986.19
2018-03-07T16:51:12.992Z,986.15
2018-03-07T16:53:06.357Z,986.21
2018-03-07T16:54:06.317Z,986.20
2018-03-07T16:55:59.666Z,986.17
2018-03-07T16:56:59.662Z,986.14
2018-03-07T16:58:53.005Z,986.19
2018-03-07T16:59:52.969Z,986.26
2018-03-07T17:01:46.332Z,986.21
2018-03-07T17:02:46.316Z,986.22
2018-03-07T17:04:39.668Z,986.25
2018-03-07T17:05:39.634Z,986.23
2018-03-07T17:07:32.482Z,986.27
2018-03-07T17:08:32.459Z,986.30
2018-03-07T17:10:25.850Z,986.32
2018-03-07T17:11:25.786Z,986.32
2018-03-07T17:13:18.685Z,986.30
2018-03-07T17:14:18.614Z,986.37
2018-03-07T17:16:11.478Z,986.38
2018-03-07T17:17:11.440Z,986.40
2018-03-07T17:19:04.787Z,986.45
2018-03-07T17:20:04.761Z,986.47
2018-03-07T17:21:58.163Z,986.50
2018-03-07T17:22:58.108Z,986.51
2018-03-07T17:24:50.954Z,986.53
2018-03-07T17:25:50.928Z,986.59
2018-03-07T17:27:44.312Z,986.63
2018-03-07T17:28:44.274Z,986.64
2018-03-07T17:30:37.615Z,986.66
2018-03-07T17:31:37.599Z,986.69
2018-03-07T17:33:30.967Z,986.70
2018-03-07T17:34:30.929Z,986.72
2018-03-07T17:36:24.277Z,986.74
2018-03-07T17:37:24.251Z,986.73
2018-03-07T17:39:17.119Z,986.75
2018-03-07T17:40:17.087Z,986.76
2018-03-07T17:42:10.441Z,986.76
2018-03-07T17:43:10.410Z,986.77
2018-03-07T17:45:03.775Z,986.82
2018-03-07T17:46:03.735Z,986.87
2018-03-07T17:47:57.094Z,986.92
2018-03-07T17:48:57.067Z,986.91
2018-03-07T17:50:50.434Z,986.95
2018-03-07T17:51:50.410Z,987.04
2018-03-07T17:53:43.748Z,987.05
2018-03-07T17:54:43.723Z,987.05
2018-03-07T17:56:37.089Z,987.05
2018-03-07T17:57:37.055Z,987.10
2018-03-07T17:59:30.414Z,987.12
2018-03-07T18:00:30.390Z,987.18
2018-03-07T18:02:23.758Z,987.24
2018-03-07T18:03:23.717Z,987.24
2018-03-07T18:05:17.073Z,987.28